createdAt,value
2022-11-10T00:00:50.595Z,1020.51
2022-11-10T00:01:50.592Z,1020.56
2022-11-10T00:02:50.587Z,1020.63
2022-11-10T00:03:50.657Z,1020.68
2022-11-10T00:04:50.595Z,1020.7
2022-11-10T00:05:50.592Z,1020.7
2022-11-10T00:06:50.663Z,1020.7
2022-11-10T00:07:50.591Z,1020.8
2022-11-10T00:08:50.619Z,1020.8
2022-11-10T00:09:50.784Z,1020.8
2022-11-10T00:10:50.593Z,1020.8
2022-11-10T00:11:50.597Z,1020.73
2022-11-10T00:12:50.594Z,1020.71
2022-11-10T00:13:50.621Z,1020.65
2022-11-10T00:14:50.595Z,1020.7
2022-11-10T00:15:50.587Z,1020.7
2022-11-10T00:16:50.588Z,1020.68
2022-11-10T00:17:50.589Z,1020.66
2022-11-10T00:18:50.608Z,1020.69
2022-11-10T00:19:50.589Z,1020.73
2022-11-10T00:20:50.630Z,1020.81
2022-11-10T00:21:50.606Z,1020.8
2022-11-10T00:22:50.608Z,1020.78
2022-11-10T00:23:50.630Z,1020.85
2022-11-10T00:24:50.622Z,1020.78
2022-11-10T00:25:50.609Z,1020.82
2022-11-10T00:26:50.603Z,1020.9
2022-11-10T00:27:50.607Z,1020.94
2022-11-10T00:28:50.610Z,1020.98
2022-11-10T00:29:50.606Z,1020.95
2022-11-10T00:30:50.594Z,1020.95
2022-11-10T00:31:50.603Z,1020.93
2022-11-10T00:32:50.608Z,1020.96
2022-11-10T00:33:50.628Z,1021.01
2022-11-10T00:34:50.588Z,1021.01
2022-11-10T00:35:50.609Z,1020.93
2022-11-10T00:36:50.603Z,1020.93
2022-11-10T00:37:50.612Z,1020.92
2022-11-10T00:38:50.625Z,1020.91
2022-11-10T00:39:50.636Z,1020.93
2022-11-10T00:40:50.602Z,1020.93
2022-11-10T00:41:50.611Z,1020.97
2022-11-10T00:42:50.611Z,1020.99
2022-11-10T00:43:50.616Z,1021.06
2022-11-10T00:44:50.610Z,1021.04
2022-11-10T00:45:50.611Z,1021.04
2022-11-10T00:46:50.610Z,1021.13
2022-11-10T00:47:50.603Z,1021.18
2022-11-10T00:48:50.607Z,1021.19
2022-11-10T00:49:50.615Z,1021.15
2022-11-10T00:50:50.604Z,1021.15
2022-11-10T00:51:50.614Z,1021.11
2022-11-10T00:52:50.609Z,1021.12
2022-11-10T00:53:50.630Z,1021.16
2022-11-10T00:54:50.622Z,1021.12
2022-11-10T00:55:50.610Z,1021.15
2022-11-10T00:56:50.614Z,1021.2
2022-11-10T00:57:50.616Z,1021.16
2022-11-10T00:58:50.620Z,1021.15
2022-11-10T00:59:50.608Z,1021.14
2022-11-10T01:00:50.674Z,1021.14
2022-11-10T01:01:50.611Z,1021.26
2022-11-10T01:02:50.603Z,1021.28
2022-11-10T01:03:50.619Z,1021.31
2022-11-10T01:04:50.607Z,1021.36
2022-11-10T01:05:50.619Z,1021.38
2022-11-10T01:06:50.647Z,1021.4
2022-11-10T01:07:50.614Z,1021.39
2022-11-10T01:08:50.609Z,1021.39
2022-11-10T01:09:50.823Z,1021.39
2022-11-10T01:10:50.597Z,1021.37
2022-11-10T01:11:50.590Z,1021.42
2022-11-10T01:12:50.593Z,1021.37
2022-11-10T01:13:50.611Z,1021.42
2022-11-10T01:14:50.588Z,1021.43
2022-11-10T01:15:50.588Z,1021.5
2022-11-10T01:16:50.587Z,1021.48
2022-11-10T01:17:50.585Z,1021.52
2022-11-10T01:18:50.596Z,1021.49
2022-11-10T01:19:50.624Z,1021.49
2022-11-10T01:20:50.587Z,1021.59
2022-11-10T01:21:50.589Z,1021.59
2022-11-10T01:22:50.596Z,1021.57
2022-11-10T01:23:50.612Z,1021.54
2022-11-10T01:24:50.620Z,1021.56
2022-11-10T01:25:50.594Z,1021.52
2022-11-10T01:26:50.606Z,1021.62
2022-11-10T01:27:50.606Z,1021.62
2022-11-10T01:28:50.620Z,1021.63
2022-11-10T01:29:50.613Z,1021.67
2022-11-10T01:30:50.612Z,1021.67
2022-11-10T01:31:50.602Z,1021.58
2022-11-10T01:32:50.610Z,1021.6
2022-11-10T01:33:50.614Z,1021.66
2022-11-10T01:34:50.604Z,1021.64
2022-11-10T01:35:50.600Z,1021.61
2022-11-10T01:36:50.585Z,1021.61
2022-11-10T01:37:50.608Z,1021.63
2022-11-10T01:38:50.619Z,1021.57
2022-11-10T01:39:50.632Z,1021.6
2022-11-10T01:40:50.617Z,1021.68
2022-11-10T01:41:50.638Z,1021.65
2022-11-10T01:42:50.608Z,1021.67
2022-11-10T01:43:50.681Z,1021.73
2022-11-10T01:44:50.619Z,1021.7
2022-11-10T01:45:50.609Z,1021.66
2022-11-10T01:46:50.594Z,1021.63
2022-11-10T01:47:50.594Z,1021.63
2022-11-10T01:48:50.612Z,1021.71
2022-11-10T01:49:50.613Z,1021.68
2022-11-10T01:50:50.609Z,1021.67
2022-11-10T01:51:50.613Z,1021.68
2022-11-10T01:52:50.609Z,1021.64
2022-11-10T01:53:50.625Z,1021.67
2022-11-10T01:54:50.623Z,1021.73
2022-11-10T01:55:50.621Z,1021.65
2022-11-10T01:56:50.626Z,1021.64
2022-11-10T01:57:50.608Z,1021.68
2022-11-10T01:58:50.636Z,1021.6
2022-11-10T01:59:50.613Z,1021.63
2022-11-10T02:00:50.643Z,1021.63
2022-11-10T02:01:50.606Z,1021.63
2022-11-10T02:02:50.601Z,1021.63
2022-11-10T02:03:50.621Z,1021.7
2022-11-10T02:04:50.601Z,1021.71
2022-11-10T02:05:50.595Z,1021.73
2022-11-10T02:06:50.607Z,1021.73
2022-11-10T02:07:50.602Z,1021.8
2022-11-10T02:08:50.608Z,1021.8
2022-11-10T02:09:50.628Z,1021.79
2022-11-10T02:10:50.609Z,1021.81
2022-11-10T02:11:50.596Z,1021.72
2022-11-10T02:12:50.608Z,1021.78
2022-11-10T02:13:50.608Z,1021.8
2022-11-10T02:14:50.601Z,1021.9
2022-11-10T02:15:50.607Z,1021.9
2022-11-10T02:16:50.584Z,1021.81
2022-11-10T02:17:50.589Z,1021.83
2022-11-10T02:18:50.599Z,1021.82
2022-11-10T02:19:50.591Z,1021.83
2022-11-10T02:20:50.584Z,1021.82
2022-11-10T02:21:50.580Z,1021.85
2022-11-10T02:22:50.588Z,1021.84
2022-11-10T02:23:50.591Z,1021.88
2022-11-10T02:24:50.610Z,1021.85
2022-11-10T02:25:50.581Z,1021.91
2022-11-10T02:26:50.583Z,1021.85
2022-11-10T02:27:50.577Z,1021.8
2022-11-10T02:28:50.589Z,1021.86
2022-11-10T02:29:50.584Z,1021.82
2022-11-10T02:30:50.598Z,1021.82
2022-11-10T02:31:50.588Z,1021.85
2022-11-10T02:32:50.580Z,1021.86
2022-11-10T02:33:50.684Z,1021.88
2022-11-10T02:34:50.579Z,1021.88
2022-11-10T02:35:50.597Z,1021.87
2022-11-10T02:36:50.599Z,1021.89
2022-11-10T02:37:50.578Z,1021.89
2022-11-10T02:38:50.602Z,1021.92
2022-11-10T02:39:50.620Z,1021.91
2022-11-10T02:40:50.606Z,1021.94
2022-11-10T02:41:50.608Z,1021.97
2022-11-10T02:42:50.594Z,1021.94
2022-11-10T02:43:50.615Z,1021.91
2022-11-10T02:44:50.600Z,1021.95
2022-11-10T02:45:50.595Z,1022.01
2022-11-10T02:46:50.596Z,1021.97
2022-11-10T02:47:50.614Z,1021.96
2022-11-10T02:48:50.585Z,1021.96
2022-11-10T02:49:50.593Z,1022
2022-11-10T02:50:50.607Z,1022.01
2022-11-10T02:51:50.596Z,1021.98
2022-11-10T02:52:50.607Z,1021.99
2022-11-10T02:53:50.607Z,1022
2022-11-10T02:54:50.612Z,1022.05
2022-11-10T02:55:50.605Z,1022.02
2022-11-10T02:56:50.599Z,1022.06
2022-11-10T02:57:50.606Z,1022.04
2022-11-10T02:58:50.607Z,1021.98
2022-11-10T02:59:50.602Z,1021.97
2022-11-10T03:00:50.602Z,1021.97
2022-11-10T03:01:50.595Z,1021.99
2022-11-10T03:02:50.591Z,1021.99
2022-11-10T03:03:50.604Z,1021.98
2022-11-10T03:04:50.597Z,1022.05
2022-11-10T03:05:50.596Z,1022.04
2022-11-10T03:06:50.663Z,1022.14
2022-11-10T03:07:50.577Z,1022.14
2022-11-10T03:08:50.632Z,1022.12
2022-11-10T03:09:50.633Z,1022.18
2022-11-10T03:10:50.593Z,1022.2
2022-11-10T03:11:50.659Z,1022.21
2022-11-10T03:12:50.604Z,1022.22
2022-11-10T03:14:01.518Z,1022.26
2022-11-10T03:14:50.615Z,1022.32
2022-11-10T03:15:50.586Z,1022.33
2022-11-10T03:16:50.598Z,1022.35
2022-11-10T03:17:50.645Z,1022.32
2022-11-10T03:18:50.587Z,1022.36
2022-11-10T03:19:50.602Z,1022.33
2022-11-10T03:20:50.610Z,1022.4
2022-11-10T03:21:50.595Z,1022.42
2022-11-10T03:22:50.593Z,1022.42
2022-11-10T03:23:50.624Z,1022.35
2022-11-10T03:24:50.605Z,1022.35
2022-11-10T03:25:50.578Z,1022.4
2022-11-10T03:26:50.578Z,1022.42
2022-11-10T03:27:50.584Z,1022.45
2022-11-10T03:28:50.595Z,1022.47
2022-11-10T03:29:50.584Z,1022.48
2022-11-10T03:30:50.584Z,1022.49
2022-11-10T03:31:50.672Z,1022.48
2022-11-10T03:32:50.588Z,1022.53
2022-11-10T03:33:50.597Z,1022.54
2022-11-10T03:34:50.592Z,1022.52
2022-11-10T03:35:50.587Z,1022.59
2022-11-10T03:36:50.578Z,1022.59
2022-11-10T03:37:50.577Z,1022.61
2022-11-10T03:38:50.588Z,1022.61
2022-11-10T03:39:50.671Z,1022.59
2022-11-10T03:41:17.529Z,1022.61
2022-11-10T03:41:50.653Z,1022.68
2022-11-10T03:42:50.593Z,1022.67
2022-11-10T03:43:50.626Z,1022.69
2022-11-10T03:44:50.614Z,1022.7
2022-11-10T03:45:50.595Z,1022.7
2022-11-10T03:46:51.856Z,1022.71
2022-11-10T03:47:50.604Z,1022.68
2022-11-10T03:48:53.737Z,1022.7
2022-11-10T03:49:50.578Z,1022.7
2022-11-10T03:50:50.591Z,1022.75
2022-11-10T03:51:50.596Z,1022.74
2022-11-10T03:52:50.591Z,1022.84
2022-11-10T03:53:50.611Z,1022.85
2022-11-10T03:54:50.620Z,1022.83
2022-11-10T03:55:50.620Z,1022.85
2022-11-10T03:56:50.602Z,1022.87
2022-11-10T03:57:50.607Z,1022.83
2022-11-10T03:58:50.610Z,1022.87
2022-11-10T03:59:50.599Z,1022.89
2022-11-10T04:00:50.582Z,1022.89
2022-11-10T04:01:50.678Z,1022.92
2022-11-10T04:02:50.595Z,1022.95
2022-11-10T04:03:51.753Z,1022.91
2022-11-10T04:04:50.598Z,1022.93
2022-11-10T04:05:50.601Z,1022.98
2022-11-10T04:06:50.630Z,1023
2022-11-10T04:07:50.603Z,1022.92
2022-11-10T04:08:50.610Z,1022.92
2022-11-10T04:09:50.630Z,1022.96
2022-11-10T04:10:50.597Z,1023.01
2022-11-10T04:11:50.590Z,1023.01
2022-11-10T04:12:50.605Z,1023.03
2022-11-10T04:13:50.636Z,1023.06
2022-11-10T04:14:50.598Z,1023.13
2022-11-10T04:15:50.609Z,1023.22
2022-11-10T04:16:50.605Z,1023.18
2022-11-10T04:17:50.604Z,1023.11
2022-11-10T04:18:50.604Z,1023.22
2022-11-10T04:19:50.601Z,1023.22
2022-11-10T04:20:50.602Z,1023.25
2022-11-10T04:21:50.592Z,1023.25
2022-11-10T04:22:50.580Z,1023.25
2022-11-10T04:23:50.627Z,1023.28
2022-11-10T04:24:50.612Z,1023.24
2022-11-10T04:25:50.608Z,1023.23
2022-11-10T04:26:50.604Z,1023.3
2022-11-10T04:27:50.599Z,1023.33
2022-11-10T04:28:50.665Z,1023.33
2022-11-10T04:29:50.613Z,1023.33
2022-11-10T04:30:50.583Z,1023.33
2022-11-10T04:31:50.595Z,1023.31
2022-11-10T04:32:50.600Z,1023.3
2022-11-10T04:33:50.606Z,1023.3
2022-11-10T04:34:50.578Z,1023.3
2022-11-10T04:35:50.584Z,1023.37
2022-11-10T04:36:50.579Z,1023.35
2022-11-10T04:37:50.595Z,1023.34
2022-11-10T04:38:50.593Z,1023.36
2022-11-10T04:39:50.595Z,1023.33
2022-11-10T04:40:50.597Z,1023.37
2022-11-10T04:41:50.592Z,1023.41
2022-11-10T04:42:50.584Z,1023.43
2022-11-10T04:43:50.610Z,1023.44
2022-11-10T04:44:50.583Z,1023.47
2022-11-10T04:45:50.578Z,1023.47
2022-11-10T04:46:50.577Z,1023.49
2022-11-10T04:47:50.584Z,1023.53
2022-11-10T04:48:50.596Z,1023.52
2022-11-10T04:49:50.578Z,1023.56
2022-11-10T04:50:50.581Z,1023.54
2022-11-10T04:51:50.628Z,1023.57
2022-11-10T04:52:50.577Z,1023.57
2022-11-10T04:53:50.593Z,1023.57
2022-11-10T04:54:50.608Z,1023.61
2022-11-10T04:55:50.609Z,1023.61
2022-11-10T04:56:50.622Z,1023.61
2022-11-10T04:57:50.602Z,1023.57
2022-11-10T04:58:50.616Z,1023.59
2022-11-10T04:59:50.604Z,1023.58
2022-11-10T05:00:50.677Z,1023.58
2022-11-10T05:01:50.619Z,1023.6
2022-11-10T05:02:50.603Z,1023.67
2022-11-10T05:03:50.616Z,1023.68
2022-11-10T05:04:50.607Z,1023.63
2022-11-10T05:05:50.601Z,1023.66
2022-11-10T05:06:50.657Z,1023.67
2022-11-10T05:07:50.593Z,1023.65
2022-11-10T05:08:50.609Z,1023.65
2022-11-10T05:09:50.622Z,1023.65
2022-11-10T05:10:50.588Z,1023.65
2022-11-10T05:11:50.606Z,1023.72
2022-11-10T05:12:50.612Z,1023.73
2022-11-10T05:13:50.608Z,1023.72
2022-11-10T05:14:50.592Z,1023.72
2022-11-10T05:15:50.600Z,1023.72
2022-11-10T05:16:50.600Z,1023.71
2022-11-10T05:17:50.598Z,1023.75
2022-11-10T05:18:50.597Z,1023.82
2022-11-10T05:19:50.594Z,1023.77
2022-11-10T05:20:50.606Z,1023.83
2022-11-10T05:21:50.611Z,1023.85
2022-11-10T05:22:50.598Z,1023.85
2022-11-10T05:23:50.619Z,1023.9
2022-11-10T05:24:50.620Z,1023.92
2022-11-10T05:25:50.582Z,1023.92
2022-11-10T05:26:50.599Z,1023.94
2022-11-10T05:27:50.592Z,1024.01
2022-11-10T05:28:50.598Z,1024
2022-11-10T05:29:50.591Z,1024
2022-11-10T05:30:50.603Z,1024.05
2022-11-10T05:31:51.693Z,1024.05
2022-11-10T05:32:50.633Z,1024.1
2022-11-10T05:33:50.613Z,1024.15
2022-11-10T05:34:50.595Z,1024.14
2022-11-10T05:35:50.599Z,1024.14
2022-11-10T05:36:50.590Z,1024.11
2022-11-10T05:37:50.592Z,1024.14
2022-11-10T05:38:50.665Z,1024.15
2022-11-10T05:39:50.609Z,1024.21
2022-11-10T05:40:50.610Z,1024.27
2022-11-10T05:41:50.615Z,1024.3
2022-11-10T05:42:50.597Z,1024.32
2022-11-10T05:43:50.609Z,1024.36
2022-11-10T05:44:50.633Z,1024.38
2022-11-10T05:45:50.586Z,1024.38
2022-11-10T05:46:50.583Z,1024.37
2022-11-10T05:47:50.586Z,1024.39
2022-11-10T05:48:50.595Z,1024.42
2022-11-10T05:49:50.577Z,1024.46
2022-11-10T05:50:50.579Z,1024.47
2022-11-10T05:51:50.576Z,1024.47
2022-11-10T05:52:50.627Z,1024.5
2022-11-10T05:53:50.591Z,1024.49
2022-11-10T05:54:50.615Z,1024.51
2022-11-10T05:55:50.584Z,1024.52
2022-11-10T05:56:50.582Z,1024.53
2022-11-10T05:57:50.596Z,1024.55
2022-11-10T05:58:50.594Z,1024.58
2022-11-10T05:59:50.574Z,1024.59
2022-11-10T06:00:50.584Z,1024.56
2022-11-10T06:01:50.587Z,1024.66
2022-11-10T06:02:50.576Z,1024.61
2022-11-10T06:03:50.681Z,1024.68
2022-11-10T06:04:50.598Z,1024.68
2022-11-10T06:05:50.587Z,1024.67
2022-11-10T06:06:50.623Z,1024.69
2022-11-10T06:07:50.600Z,1024.69
2022-11-10T06:08:50.606Z,1024.69
2022-11-10T06:09:50.776Z,1024.69
2022-11-10T06:10:50.597Z,1024.64
2022-11-10T06:11:50.597Z,1024.65
2022-11-10T06:12:50.596Z,1024.73
2022-11-10T06:13:50.609Z,1024.73
2022-11-10T06:14:50.593Z,1024.77
2022-11-10T06:15:50.855Z,1024.77
2022-11-10T06:16:50.583Z,1024.77
2022-11-10T06:17:50.590Z,1024.77
2022-11-10T06:18:50.603Z,1024.8
2022-11-10T06:19:50.582Z,1024.75
2022-11-10T06:20:50.605Z,1024.78
2022-11-10T06:21:52.837Z,1024.8
2022-11-10T06:22:50.605Z,1024.77
2022-11-10T06:23:50.599Z,1024.81
2022-11-10T06:24:50.648Z,1024.85
2022-11-10T06:25:50.588Z,1024.84
2022-11-10T06:26:50.597Z,1024.84
2022-11-10T06:27:50.584Z,1024.84
2022-11-10T06:28:50.604Z,1024.94
2022-11-10T06:29:50.599Z,1024.99
2022-11-10T06:30:50.606Z,1024.94
2022-11-10T06:31:50.600Z,1025.03
2022-11-10T06:32:50.600Z,1025.02
2022-11-10T06:33:50.613Z,1025.03
2022-11-10T06:34:50.615Z,1025.09
2022-11-10T06:35:50.601Z,1025.09
2022-11-10T06:36:50.590Z,1025.11
2022-11-10T06:37:50.592Z,1025.1
2022-11-10T06:38:50.606Z,1025.1
2022-11-10T06:39:50.609Z,1025.1
2022-11-10T06:40:50.600Z,1025.12
2022-11-10T06:41:50.598Z,1025.2
2022-11-10T06:42:50.582Z,1025.19
2022-11-10T06:43:50.607Z,1025.24
2022-11-10T06:44:50.591Z,1025.29
2022-11-10T06:45:50.594Z,1025.28
2022-11-10T06:46:50.594Z,1025.31
2022-11-10T06:47:50.597Z,1025.35
2022-11-10T06:48:50.600Z,1025.38
2022-11-10T06:49:50.601Z,1025.4
2022-11-10T06:50:50.594Z,1025.47
2022-11-10T06:51:50.608Z,1025.47
2022-11-10T06:52:50.601Z,1025.45
2022-11-10T06:53:50.613Z,1025.53
2022-11-10T06:54:50.633Z,1025.53
2022-11-10T06:55:50.605Z,1025.53
2022-11-10T06:56:50.601Z,1025.56
2022-11-10T06:57:50.600Z,1025.56
2022-11-10T06:58:50.603Z,1025.59
2022-11-10T06:59:50.583Z,1025.6
2022-11-10T07:00:50.683Z,1025.57
2022-11-10T07:01:50.580Z,1025.54
2022-11-10T07:02:50.579Z,1025.57
2022-11-10T07:04:17.663Z,1025.58
2022-11-10T07:04:50.590Z,1025.57
2022-11-10T07:05:50.586Z,1025.64
2022-11-10T07:06:50.668Z,1025.7
2022-11-10T07:07:50.581Z,1025.67
2022-11-10T07:08:50.587Z,1025.7
2022-11-10T07:09:50.620Z,1025.7
2022-11-10T07:10:50.589Z,1025.75
2022-11-10T07:11:50.600Z,1025.78
2022-11-10T07:12:50.583Z,1025.8
2022-11-10T07:13:50.597Z,1025.83
2022-11-10T07:14:50.587Z,1025.84
2022-11-10T07:15:50.593Z,1025.91
2022-11-10T07:16:50.591Z,1025.85
2022-11-10T07:17:50.584Z,1025.89
2022-11-10T07:18:50.605Z,1025.89
2022-11-10T07:19:50.586Z,1025.89
2022-11-10T07:20:50.583Z,1025.95
2022-11-10T07:21:50.599Z,1025.9
2022-11-10T07:22:50.609Z,1025.95
2022-11-10T07:23:50.616Z,1025.97
2022-11-10T07:24:50.607Z,1025.94
2022-11-10T07:25:50.601Z,1025.94
2022-11-10T07:26:50.595Z,1025.95
2022-11-10T07:27:50.602Z,1025.97
2022-11-10T07:28:50.615Z,1026.03
2022-11-10T07:29:50.596Z,1026.02
2022-11-10T07:30:50.582Z,1026.02
2022-11-10T07:31:50.595Z,1026.08
2022-11-10T07:32:50.595Z,1026.07
2022-11-10T07:33:54.390Z,1026.06
2022-11-10T07:34:50.604Z,1026.06
2022-11-10T07:35:50.596Z,1026.1
2022-11-10T07:36:50.592Z,1026.12
2022-11-10T07:37:50.590Z,1026.15
2022-11-10T07:38:50.596Z,1026.12
2022-11-10T07:39:50.607Z,1026.16
2022-11-10T07:40:50.630Z,1026.14
2022-11-10T07:41:52.613Z,1026.16
2022-11-10T07:42:50.593Z,1026.17
2022-11-10T07:43:50.606Z,1026.18
2022-11-10T07:44:50.610Z,1026.23
2022-11-10T07:45:50.606Z,1026.17
2022-11-10T07:46:50.613Z,1026.17
2022-11-10T07:47:50.604Z,1026.18
2022-11-10T07:48:50.624Z,1026.24
2022-11-10T07:49:50.599Z,1026.29
2022-11-10T07:50:50.597Z,1026.3
2022-11-10T07:51:50.582Z,1026.3
2022-11-10T07:52:50.597Z,1026.31
2022-11-10T07:53:50.611Z,1026.3
2022-11-10T07:54:50.606Z,1026.38
2022-11-10T07:55:50.610Z,1026.37
2022-11-10T07:56:50.596Z,1026.42
2022-11-10T07:57:50.600Z,1026.42
2022-11-10T07:58:50.609Z,1026.44
2022-11-10T07:59:52.872Z,1026.47
2022-11-10T08:00:50.596Z,1026.47
2022-11-10T08:01:50.729Z,1026.48
2022-11-10T08:02:50.606Z,1026.52
2022-11-10T08:03:50.605Z,1026.53
2022-11-10T08:04:50.597Z,1026.53
2022-11-10T08:05:50.580Z,1026.59
2022-11-10T08:06:50.699Z,1026.64
2022-11-10T08:07:50.638Z,1026.63
2022-11-10T08:08:50.610Z,1026.63
2022-11-10T08:09:50.613Z,1026.63
2022-11-10T08:10:50.582Z,1026.67
2022-11-10T08:11:50.603Z,1026.67
2022-11-10T08:12:50.576Z,1026.71
2022-11-10T08:13:50.601Z,1026.71
2022-11-10T08:14:50.580Z,1026.78
2022-11-10T08:15:50.580Z,1026.76
2022-11-10T08:16:50.587Z,1026.77
2022-11-10T08:17:50.577Z,1026.79
2022-11-10T08:18:50.583Z,1026.82
2022-11-10T08:19:50.577Z,1026.8
2022-11-10T08:20:50.597Z,1026.76
2022-11-10T08:21:50.580Z,1026.9
2022-11-10T08:22:50.576Z,1026.95
2022-11-10T08:23:50.594Z,1026.95
2022-11-10T08:24:50.606Z,1026.93
2022-11-10T08:25:50.597Z,1026.93
2022-11-10T08:26:50.609Z,1026.98
2022-11-10T08:27:50.594Z,1026.95
2022-11-10T08:28:50.608Z,1027.06
2022-11-10T08:29:50.597Z,1027.03
2022-11-10T08:30:50.604Z,1027.03
2022-11-10T08:31:50.598Z,1027.03
2022-11-10T08:32:50.611Z,1027.05
2022-11-10T08:33:50.591Z,1027.05
2022-11-10T08:34:50.587Z,1027.13
2022-11-10T08:35:50.606Z,1027.13
2022-11-10T08:36:50.610Z,1027.11
2022-11-10T08:37:50.604Z,1027.19
2022-11-10T08:38:50.625Z,1027.23
2022-11-10T08:39:50.607Z,1027.26
2022-11-10T08:40:50.614Z,1027.23
2022-11-10T08:41:50.599Z,1027.2
2022-11-10T08:42:50.603Z,1027.28
2022-11-10T08:43:50.603Z,1027.23
2022-11-10T08:44:50.597Z,1027.29
2022-11-10T08:45:50.602Z,1027.18
2022-11-10T08:46:50.598Z,1027.34
2022-11-10T08:47:50.601Z,1027.3
2022-11-10T08:48:50.607Z,1027.22
2022-11-10T08:49:50.595Z,1027.21
2022-11-10T08:50:50.600Z,1027.26
2022-11-10T08:51:50.594Z,1027.35
2022-11-10T08:52:50.612Z,1027.34
2022-11-10T08:53:50.586Z,1027.34
2022-11-10T08:54:50.620Z,1027.43
2022-11-10T08:55:50.589Z,1027.36
2022-11-10T08:56:50.594Z,1027.5
2022-11-10T08:57:50.591Z,1027.36
2022-11-10T08:58:53.458Z,1027.41
2022-11-10T08:59:50.590Z,1027.39
2022-11-10T09:00:50.595Z,1027.39
2022-11-10T09:01:50.596Z,1027.32
2022-11-10T09:02:50.598Z,1027.38
2022-11-10T09:03:50.587Z,1027.38
2022-11-10T09:04:50.731Z,1027.43
2022-11-10T09:05:55.231Z,1027.5
2022-11-10T09:06:50.652Z,1027.41
2022-11-10T09:07:50.602Z,1027.41
2022-11-10T09:08:50.598Z,1027.56
2022-11-10T09:10:06.108Z,1027.55
2022-11-10T09:10:50.599Z,1027.7
2022-11-10T09:11:50.607Z,1027.69
2022-11-10T09:12:50.606Z,1027.67
2022-11-10T09:13:50.606Z,1027.71
2022-11-10T09:14:50.601Z,1027.75
2022-11-10T09:15:50.590Z,1027.72
2022-11-10T09:16:50.579Z,1027.72
2022-11-10T09:17:50.589Z,1027.7
2022-11-10T09:18:50.590Z,1027.7
2022-11-10T09:19:50.627Z,1027.73
2022-11-10T09:20:50.585Z,1027.8
2022-11-10T09:21:50.578Z,1027.82
2022-11-10T09:22:50.585Z,1027.9
2022-11-10T09:23:50.609Z,1027.92
2022-11-10T09:24:50.608Z,1027.95
2022-11-10T09:25:50.587Z,1027.93
2022-11-10T09:26:50.580Z,1027.96
2022-11-10T09:27:50.595Z,1027.94
2022-11-10T09:28:50.607Z,1028
2022-11-10T09:29:50.587Z,1028.01
2022-11-10T09:30:50.622Z,1028.02
2022-11-10T09:31:50.589Z,1027.99
2022-11-10T09:32:50.586Z,1027.96
2022-11-10T09:33:50.603Z,1027.93
2022-11-10T09:34:53.111Z,1027.9
2022-11-10T09:35:50.959Z,1027.9
2022-11-10T09:36:50.587Z,1027.91
2022-11-10T09:37:50.587Z,1027.86
2022-11-10T09:38:50.596Z,1027.85
2022-11-10T09:39:50.598Z,1027.88
2022-11-10T09:40:51.430Z,1027.86
2022-11-10T09:41:50.597Z,1027.96
2022-11-10T09:42:50.600Z,1027.93
2022-11-10T09:43:50.609Z,1027.93
2022-11-10T09:44:50.600Z,1027.92
2022-11-10T09:45:50.602Z,1027.96
2022-11-10T09:46:50.607Z,1027.92
2022-11-10T09:47:57.166Z,1027.87
2022-11-10T09:48:50.616Z,1027.93
2022-11-10T09:49:50.600Z,1027.87
2022-11-10T09:50:50.607Z,1028.02
2022-11-10T09:51:50.580Z,1028.02
2022-11-10T09:52:50.597Z,1027.96
2022-11-10T09:53:50.624Z,1028.08
2022-11-10T09:54:50.621Z,1028.07
2022-11-10T09:55:50.593Z,1028.11
2022-11-10T09:56:50.598Z,1028.15
2022-11-10T09:57:50.599Z,1028.08
2022-11-10T09:58:50.659Z,1028.15
2022-11-10T09:59:50.603Z,1028.16
2022-11-10T10:00:50.610Z,1028.05
2022-11-10T10:01:50.646Z,1028.12
2022-11-10T10:02:50.585Z,1028.12
2022-11-10T10:03:50.614Z,1028.11
2022-11-10T10:04:51.898Z,1028.1
2022-11-10T10:05:50.611Z,1028.08
2022-11-10T10:07:10.044Z,1027.98
2022-11-10T10:07:50.639Z,1028.08
2022-11-10T10:08:50.617Z,1028.08
2022-11-10T10:09:50.614Z,1028.02
2022-11-10T10:10:50.601Z,1028.12
2022-11-10T10:11:50.609Z,1028.08
2022-11-10T10:12:50.597Z,1028.08
2022-11-10T10:13:50.608Z,1028.28
2022-11-10T10:14:50.604Z,1028.17
2022-11-10T10:15:50.607Z,1028.24
2022-11-10T10:16:50.613Z,1028.27
2022-11-10T10:17:50.604Z,1028.21
2022-11-10T10:18:50.611Z,1028.13
2022-11-10T10:19:50.598Z,1028.22
2022-11-10T10:20:50.588Z,1028.22
2022-11-10T10:21:50.617Z,1028.29
2022-11-10T10:22:50.603Z,1028.32
2022-11-10T10:24:50.648Z,1028.28
2022-11-10T10:25:50.598Z,1028.31
2022-11-10T10:26:50.602Z,1028.28
2022-11-10T10:27:50.596Z,1028.26
2022-11-10T10:28:50.625Z,1028.3
2022-11-10T10:29:50.611Z,1028.31
2022-11-10T10:30:50.599Z,1028.37
2022-11-10T10:31:50.607Z,1028.29
2022-11-10T10:32:50.605Z,1028.36
2022-11-10T10:33:50.609Z,1028.29
2022-11-10T10:34:50.599Z,1028.28
2022-11-10T10:35:50.598Z,1028.28
2022-11-10T10:36:50.588Z,1028.27
2022-11-10T10:37:50.581Z,1028.24
2022-11-10T10:38:50.636Z,1028.21
2022-11-10T10:39:50.617Z,1028.29
2022-11-10T10:40:50.591Z,1028.19
2022-11-10T10:41:50.590Z,1028.34
2022-11-10T10:42:50.588Z,1028.23
2022-11-10T10:43:50.614Z,1028.27
2022-11-10T10:44:50.585Z,1028.25
2022-11-10T10:45:50.694Z,1028.38
2022-11-10T10:46:50.615Z,1028.33
2022-11-10T10:47:50.595Z,1028.37
2022-11-10T10:48:53.858Z,1028.31
2022-11-10T10:49:50.594Z,1028.33
2022-11-10T10:50:50.585Z,1028.35
2022-11-10T10:51:50.584Z,1028.24
2022-11-10T10:52:50.577Z,1028.28
2022-11-10T10:53:50.597Z,1028.28
2022-11-10T10:54:50.609Z,1028.31
2022-11-10T10:55:50.613Z,1028.25
2022-11-10T10:56:50.592Z,1028.34
2022-11-10T10:57:50.599Z,1028.33
2022-11-10T10:58:50.618Z,1028.34
2022-11-10T10:59:50.596Z,1028.3
2022-11-10T11:00:50.592Z,1028.33
2022-11-10T11:01:50.655Z,1028.34
2022-11-10T11:02:50.607Z,1028.35
2022-11-10T11:03:50.617Z,1028.35
2022-11-10T11:04:50.592Z,1028.32
2022-11-10T11:05:50.604Z,1028.23
2022-11-10T11:06:50.632Z,1028.35
2022-11-10T11:07:50.596Z,1028.15
2022-11-10T11:08:50.600Z,1028.15
2022-11-10T11:09:50.627Z,1028.24
2022-11-10T11:10:50.617Z,1028.21
2022-11-10T11:11:50.594Z,1028.22
2022-11-10T11:12:50.622Z,1028.18
2022-11-10T11:13:50.611Z,1028.19
2022-11-10T11:14:50.602Z,1028.21
2022-11-10T11:15:50.595Z,1028.23
2022-11-10T11:16:50.598Z,1028.26
2022-11-10T11:17:50.677Z,1028.24
2022-11-10T11:18:50.608Z,1028.23
2022-11-10T11:19:53.402Z,1028.25
2022-11-10T11:20:50.592Z,1028.32
2022-11-10T11:21:50.599Z,1028.3
2022-11-10T11:22:50.591Z,1028.3
2022-11-10T11:23:50.608Z,1028.37
2022-11-10T11:24:50.624Z,1028.37
2022-11-10T11:25:50.592Z,1028.34
2022-11-10T11:26:50.614Z,1028.37
2022-11-10T11:27:50.618Z,1028.34
2022-11-10T11:28:51.284Z,1028.32
2022-11-10T11:29:50.606Z,1028.33
2022-11-10T11:30:50.599Z,1028.36
2022-11-10T11:31:50.595Z,1028.37
2022-11-10T11:32:50.592Z,1028.43
2022-11-10T11:33:50.616Z,1028.45
2022-11-10T11:34:50.577Z,1028.45
2022-11-10T11:35:50.599Z,1028.49
2022-11-10T11:36:50.600Z,1028.41
2022-11-10T11:37:50.626Z,1028.49
2022-11-10T11:38:50.619Z,1028.52
2022-11-10T11:39:50.622Z,1028.48
2022-11-10T11:40:50.596Z,1028.53
2022-11-10T11:41:50.600Z,1028.57
2022-11-10T11:42:50.615Z,1028.49
2022-11-10T11:43:50.635Z,1028.52
2022-11-10T11:44:50.608Z,1028.57
2022-11-10T11:45:50.592Z,1028.51
2022-11-10T11:46:50.581Z,1028.51
2022-11-10T11:47:50.577Z,1028.55
2022-11-10T11:48:50.618Z,1028.62
2022-11-10T11:49:50.595Z,1028.58
2022-11-10T11:50:50.577Z,1028.58
2022-11-10T11:51:50.586Z,1028.62
2022-11-10T11:52:50.632Z,1028.63
2022-11-10T11:53:50.584Z,1028.55
2022-11-10T11:54:50.609Z,1028.58
2022-11-10T11:55:50.659Z,1028.63
2022-11-10T11:56:50.591Z,1028.58
2022-11-10T11:57:50.666Z,1028.6
2022-11-10T11:58:50.616Z,1028.59
2022-11-10T11:59:50.575Z,1028.65
2022-11-10T12:00:50.577Z,1028.62
2022-11-10T12:01:50.582Z,1028.66
2022-11-10T12:02:53.164Z,1028.64
2022-11-10T12:03:50.610Z,1028.69
2022-11-10T12:04:50.583Z,1028.69
2022-11-10T12:05:50.593Z,1028.65
2022-11-10T12:06:50.610Z,1028.65
2022-11-10T12:07:50.588Z,1028.66
2022-11-10T12:08:50.618Z,1028.66
2022-11-10T12:09:50.616Z,1028.66